Time;durP1;ratioP1;P1;durP2;ratioP2;P2;SDS_P1;SDS_P2;PMS_P1;PMS_P2;Temp;Humidity;BMP_temperature;BMP_pressure;BME280_temperature;BME280_humidity;BME280_pressure;Samples;Min_cycle;Max_cycle;Signal;HPM_P1;HPM_P2
2022/06/13 00:01:38;;;;;;;0.00;0.00;;;22.50;60.50;;;;;;4192363;28;20044;-70
2022/06/13 00:04:03;;;;;;;0.00;0.00;;;22.50;60.50;;;;;;4192153;28;20131;-70
2022/06/13 00:06:25;;;;;;;0.40;0.40;;;22.50;60.50;;;;;;4224217;27;20039;-69
2022/06/13 00:08:47;;;;;;;0.10;0.10;;;22.40;60.50;;;;;;4225763;28;20070;-70
2022/06/13 00:11:13;;;;;;;0.00;0.00;;;22.40;60.50;;;;;;4225237;28;20067;-69
2022/06/13 00:13:35;;;;;;;0.00;0.00;;;22.40;61.50;;;;;;4225379;28;20510;-69
2022/06/13 00:15:58;;;;;;;0.00;0.00;;;22.40;60.60;;;;;;4225538;28;20116;-70
2022/06/13 00:18:21;;;;;;;0.00;0.00;;;22.40;60.70;;;;;;4191827;28;20052;-70
2022/06/13 00:20:43;;;;;;;0.00;0.00;;;22.40;60.70;;;;;;4190387;28;20616;-70
2022/06/13 00:23:05;;;;;;;0.00;0.00;;;22.40;60.70;;;;;;4190512;28;20509;-70
2022/06/13 00:25:28;;;;;;;0.00;0.00;;;22.40;60.70;;;;;;4191434;28;20094;-70
2022/06/13 00:27:50;;;;;;;0.00;0.00;;;22.40;60.80;;;;;;4193941;28;20051;-70
2022/06/13 00:30:13;;;;;;;0.00;0.00;;;22.40;60.80;;;;;;4226761;28;20094;-70
2022/06/13 00:32:36;;;;;;;0.05;0.05;;;22.40;60.80;;;;;;4229193;27;20050;-70
2022/06/13 00:34:58;;;;;;;0.90;0.30;;;22.40;60.80;;;;;;4229012;27;20047;-70
2022/06/13 00:37:20;;;;;;;0.00;0.00;;;22.40;60.90;;;;;;4222910;27;20051;-69
2022/06/13 00:39:42;;;;;;;0.00;0.00;;;22.30;60.90;;;;;;4212233;28;20066;-70
2022/06/13 00:42:05;;;;;;;0.00;0.00;;;22.30;60.90;;;;;;4211753;28;20455;-70
2022/06/13 00:44:29;;;;;;;0.00;0.00;;;22.40;61.00;;;;;;4212038;28;20059;-70
2022/06/13 00:46:52;;;;;;;0.30;0.30;;;22.30;60.90;;;;;;4212313;28;20515;-70
2022/06/13 00:49:20;;;;;;;0.38;0.38;;;22.30;61.00;;;;;;4228672;27;20058;-70
2022/06/13 00:51:46;;;;;;;0.32;0.32;;;22.30;61.00;;;;;;4228285;28;20048;-69
2022/06/13 00:54:08;;;;;;;0.00;0.00;;;22.30;61.10;;;;;;4228668;28;20067;-69
2022/06/13 00:56:33;;;;;;;0.00;0.00;;;22.30;62.00;;;;;;4227277;28;20502;-70
2022/06/13 00:58:58;;;;;;;0.00;0.00;;;22.30;61.20;;;;;;4228673;27;20393;-70
2022/06/13 01:01:21;;;;;;;0.00;0.00;;;22.30;61.30;;;;;;4195214;28;20076;-70
2022/06/13 01:03:44;;;;;;;0.00;0.00;;;22.30;61.30;;;;;;4194942;28;20048;-69
2022/06/13 01:06:07;;;;;;;0.00;0.00;;;22.30;61.40;;;;;;4194915;28;20102;-70
2022/06/13 01:08:32;;;;;;;0.00;0.00;;;22.30;61.40;;;;;;4193611;28;20047;-69
2022/06/13 01:14:09;;;;;;;0.00;0.00;;;22.20;61.50;;;;;;4194799;28;20135;-70
2022/06/13 01:16:44;;;;;;;0.00;0.00;;;22.20;61.50;;;;;;4202057;28;20044;-70
2022/06/13 01:19:45;;;;;;;0.75;0.75;;;22.20;61.60;;;;;;4211010;28;20055;-70
2022/06/13 01:22:23;;;;;;;0.00;0.00;;;22.20;61.70;;;;;;4210859;28;20047;-70
2022/06/13 01:25:14;;;;;;;0.15;0.15;;;22.20;62.60;;;;;;4221885;27;20071;-70
2022/06/13 01:28:03;;;;;;;0.00;0.00;;;22.20;61.70;;;;;;4227690;28;20131;-70
2022/06/13 01:31:04;;;;;;;0.30;0.30;;;22.20;61.80;;;;;;4227710;27;20273;-70
2022/06/13 01:33:34;;;;;;;0.00;0.00;;;22.20;61.80;;;;;;4243247;27;20050;-70
2022/06/13 01:36:17;;;;;;;0.00;0.00;;;22.20;61.90;;;;;;4237023;27;20281;-70
2022/06/13 01:38:54;;;;;;;0.43;0.43;;;22.20;62.00;;;;;;4210758;28;20051;-70
2022/06/13 01:41:23;;;;;;;0.00;0.00;;;22.10;61.90;;;;;;4210827;28;20074;-71
2022/06/13 01:43:54;;;;;;;1.35;0.70;;;22.10;62.00;;;;;;4210384;28;20067;-70
2022/06/13 01:46:21;;;;;;;;;;;22.10;62.10;;;;;;4209580;28;20050;-71
2022/06/13 01:48:54;;;;;;;0.00;0.00;;;22.10;62.10;;;;;;4224693;28;20339;-71
2022/06/13 01:51:23;;;;;;;0.00;0.00;;;22.10;62.10;;;;;;4227570;27;20559;-70
2022/06/13 01:53:50;;;;;;;0.15;0.15;;;22.10;62.10;;;;;;4227506;28;20507;-69
2022/06/13 01:56:15;;;;;;;0.00;0.00;;;22.10;62.20;;;;;;4225455;27;20100;-69
2022/06/13 01:58:46;;;;;;;0.00;0.00;;;22.10;63.20;;;;;;4220745;28;20369;-69
2022/06/13 02:01:15;;;;;;;0.10;0.10;;;22.10;62.40;;;;;;4193701;28;20144;-69
2022/06/13 02:03:43;;;;;;;0.03;0.03;;;22.10;62.40;;;;;;4193981;28;20048;-70
2022/06/13 02:06:09;;;;;;;0.75;0.75;;;22.10;62.40;;;;;;4210585;27;20054;-70
2022/06/13 02:08:36;;;;;;;0.35;0.35;;;22.10;62.40;;;;;;4227257;27;20097;-69
2022/06/13 02:11:02;;;;;;;0.00;0.00;;;22.10;62.50;;;;;;4225351;27;20500;-69
2022/06/13 02:13:35;;;;;;;0.10;0.10;;;22.10;62.50;;;;;;4226963;27;20055;-69
2022/06/13 02:16:00;;;;;;;0.00;0.00;;;22.10;62.50;;;;;;4214812;28;20044;-69
2022/06/13 02:18:27;;;;;;;0.20;0.20;;;22.10;62.60;;;;;;4210708;28;20051;-69
2022/06/13 02:20:55;;;;;;;0.00;0.00;;;22.10;62.60;;;;;;4210463;28;20063;-69
2022/06/13 02:23:22;;;;;;;0.00;0.00;;;22.00;62.50;;;;;;4209747;28;20056;-69
2022/06/13 02:25:49;;;;;;;0.95;0.95;;;22.00;62.60;;;;;;4219570;27;20058;-69
2022/06/13 02:28:17;;;;;;;0.10;0.10;;;22.00;62.60;;;;;;4226783;27;20054;-69
2022/06/13 02:30:44;;;;;;;1.77;0.65;;;22.00;62.70;;;;;;4227334;28;20057;-70
2022/06/13 02:33:11;;;;;;;0.00;0.00;;;22.00;62.70;;;;;;4226890;28;20515;-69
2022/06/13 02:35:37;;;;;;;0.00;0.00;;;22.00;62.80;;;;;;4227305;27;20054;-69
2022/06/13 02:38:05;;;;;;;0.00;0.00;;;22.00;62.80;;;;;;4214937;28;20043;-69
2022/06/13 02:40:30;;;;;;;0.00;0.00;;;22.00;62.70;;;;;;4208535;28;20075;-71
2022/06/13 02:42:58;;;;;;;2.38;1.48;;;22.00;62.80;;;;;;4210111;28;20443;-71
2022/06/13 02:45:23;;;;;;;0.00;0.00;;;22.00;62.90;;;;;;4212280;27;20047;-71
2022/06/13 02:47:53;;;;;;;0.00;0.00;;;22.00;62.90;;;;;;4226755;27;20067;-71
2022/06/13 02:50:21;;;;;;;0.00;0.00;;;21.90;62.80;;;;;;4226100;28;20104;-70
2022/06/13 02:52:49;;;;;;;0.00;0.00;;;22.00;62.90;;;;;;4226566;27;20047;-71
2022/06/13 02:55:15;;;;;;;0.00;0.00;;;21.90;62.90;;;;;;4224817;28;20138;-70
2022/06/13 02:57:54;;;;;;;0.00;0.00;;;21.90;62.90;;;;;;4210011;28;20047;-71
2022/06/13 03:00:22;;;;;;;0.00;0.00;;;21.90;63.00;;;;;;4224932;27;20188;-71
2022/06/13 03:02:51;;;;;;;0.90;0.80;;;21.90;63.10;;;;;;4226165;27;20055;-70
2022/06/13 03:05:33;;;;;;;0.00;0.00;;;21.90;63.10;;;;;;4224884;27;20054;-70
2022/06/13 03:08:00;;;;;;;0.10;0.10;;;21.90;63.10;;;;;;4218037;28;20073;-71
2022/06/13 03:10:28;;;;;;;0.10;0.10;;;22.00;63.20;;;;;;4225989;27;20039;-70
2022/06/13 03:12:59;;;;;;;4.18;1.35;;;21.90;63.20;;;;;;4226458;28;20050;-71
2022/06/13 03:15:27;;;;;;;0.00;0.00;;;21.90;63.40;;;;;;4237103;27;20454;-70
2022/06/13 03:17:54;;;;;;;0.00;0.00;;;21.90;63.50;;;;;;4226371;27;20354;-71
2022/06/13 03:20:20;;;;;;;0.25;0.25;;;21.90;63.50;;;;;;4226289;27;20151;-70
2022/06/13 03:22:47;;;;;;;0.00;0.00;;;21.90;63.60;;;;;;4225900;27;20403;-70
2022/06/13 03:25:18;;;;;;;0.32;0.30;;;21.90;63.60;;;;;;4228181;27;20046;-71
2022/06/13 03:27:46;;;;;;;1.20;0.30;;;21.90;63.60;;;;;;4209579;28;20496;-71
2022/06/13 03:30:12;;;;;;;0.00;0.00;;;21.90;63.60;;;;;;4209811;28;20733;-71
2022/06/13 03:32:37;;;;;;;0.00;0.00;;;21.90;63.70;;;;;;4209146;28;20047;-71
2022/06/13 03:35:04;;;;;;;0.10;0.10;;;21.80;63.60;;;;;;4216439;27;20544;-71
2022/06/13 03:37:32;;;;;;;0.00;0.00;;;21.80;63.70;;;;;;4242863;27;20166;-70
2022/06/13 03:39:59;;;;;;;0.00;0.00;;;21.80;63.80;;;;;;4243230;27;20070;-71
2022/06/13 03:42:27;;;;;;;0.00;0.00;;;21.80;63.90;;;;;;4241409;27;20641;-70
2022/06/13 03:44:56;;;;;;;0.00;0.00;;;21.80;64.00;;;;;;4239229;27;20100;-71
2022/06/13 03:47:22;;;;;;;0.00;0.00;;;21.80;64.00;;;;;;4225895;27;20138;-70
2022/06/13 03:49:49;;;;;;;0.00;0.00;;;21.80;64.10;;;;;;4224779;27;20052;-70
2022/06/13 03:52:14;;;;;;;0.00;0.00;;;21.80;64.20;;;;;;4225434;27;20553;-70
2022/06/13 03:54:40;;;;;;;0.00;0.00;;;21.80;64.20;;;;;;4224179;27;20039;-70
2022/06/13 03:57:08;;;;;;;0.00;0.00;;;21.80;64.20;;;;;;4228583;27;20528;-70
2022/06/13 03:59:36;;;;;;;0.00;0.00;;;21.80;64.30;;;;;;4241028;27;20061;-70
2022/06/13 04:02:03;;;;;;;0.10;0.10;;;21.80;64.40;;;;;;4241570;27;20055;-70
2022/06/13 04:04:31;;;;;;;10.93;0.93;;;21.80;64.40;;;;;;4242474;27;20088;-70
2022/06/13 04:06:54;;;;;;;0.00;0.00;;;21.80;64.50;;;;;;4241262;27;20506;-70
2022/06/13 04:09:21;;;;;;;0.00;0.00;;;21.80;64.60;;;;;;4236224;27;20089;-70
2022/06/13 04:11:55;;;;;;;0.00;0.00;;;21.80;64.60;;;;;;4225665;27;20098;-68
2022/06/13 04:14:49;;;;;;;0.00;0.00;;;21.80;64.60;;;;;;4223623;27;20063;-70
2022/06/13 04:17:21;;;;;;;0.00;0.00;;;21.80;64.60;;;;;;4223695;27;20088;-71
2022/06/13 04:19:55;;;;;;;0.25;0.25;;;21.80;64.60;;;;;;4253336;27;20042;-71
2022/06/13 04:22:23;;;;;;;0.00;0.00;;;21.70;64.60;;;;;;4221564;27;20143;-71
2022/06/13 04:24:56;;;;;;;0.00;0.00;;;21.80;64.70;;;;;;4241848;27;20047;-71
2022/06/13 04:27:22;;;;;;;0.00;0.00;;;21.80;64.70;;;;;;4242040;27;20054;-70
2022/06/13 04:29:52;;;;;;;0.00;0.00;;;21.80;64.70;;;;;;4242423;27;20051;-71
2022/06/13 04:32:19;;;;;;;0.10;0.10;;;21.80;64.70;;;;;;4242063;27;20487;-71
2022/06/13 04:34:45;;;;;;;0.00;0.00;;;21.80;64.60;;;;;;4226161;27;20038;-71
2022/06/13 04:37:08;;;;;;;0.00;0.00;;;21.80;64.60;;;;;;4225108;27;20054;-70
2022/06/13 04:39:35;;;;;;;0.00;0.00;;;21.80;64.60;;;;;;4225437;27;20144;-71
2022/06/13 04:42:00;;;;;;;0.00;0.00;;;21.90;64.60;;;;;;4225617;27;20058;-70
2022/06/13 04:44:25;;;;;;;0.05;0.05;;;21.80;64.50;;;;;;4225016;27;20056;-70
2022/06/13 04:46:48;;;;;;;0.10;0.10;;;21.80;64.40;;;;;;4225276;27;20052;-71
2022/06/13 04:49:31;;;;;;;0.00;0.00;;;21.90;64.40;;;;;;4242427;27;20133;-71
2022/06/13 04:51:55;;;;;;;0.10;0.10;;;21.90;64.30;;;;;;4242305;27;20050;-70
2022/06/13 04:54:23;;;;;;;0.00;0.00;;;22.00;64.30;;;;;;4226745;27;20128;-70
2022/06/13 04:56:46;;;;;;;0.00;0.00;;;21.90;64.30;;;;;;4225196;27;20047;-71
2022/06/13 04:59:14;;;;;;;0.25;0.10;;;21.90;64.10;;;;;;4225168;27;20043;-71
2022/06/13 05:01:43;;;;;;;0.55;0.55;;;21.90;64.20;;;;;;4225422;27;20453;-71
2022/06/13 05:04:07;;;;;;;0.00;0.00;;;21.90;64.10;;;;;;4238154;27;20039;-70
2022/06/13 05:06:36;;;;;;;0.17;0.17;;;21.90;64.10;;;;;;4242378;27;20135;-70
2022/06/13 05:09:06;;;;;;;0.15;0.15;;;21.90;64.10;;;;;;4242197;27;20671;-70
2022/06/13 05:11:31;;;;;;;1.13;0.47;;;21.90;64.10;;;;;;4240944;27;20071;-71
2022/06/13 05:13:57;;;;;;;0.00;0.00;;;21.90;64.30;;;;;;4230294;27;20565;-70
2022/06/13 05:16:29;;;;;;;0.00;0.00;;;21.90;64.70;;;;;;4228273;27;21141;-73
2022/06/13 05:19:07;;;;;;;21.92;1.20;;;21.90;65.20;;;;;;4228521;27;20043;-75
2022/06/13 05:21:42;;;;;;;0.00;0.00;;;21.90;64.90;;;;;;4212663;27;20089;-74
2022/06/13 05:24:25;;;;;;;0.05;0.05;;;22.00;64.80;;;;;;4225521;27;20096;-74
2022/06/13 05:26:47;;;;;;;0.00;0.00;;;21.90;64.30;;;;;;4224378;27;20059;-74
2022/06/13 05:29:10;;;;;;;0.38;0.22;;;21.90;64.30;;;;;;4224519;27;20040;-73
2022/06/13 05:31:32;;;;;;;0.00;0.00;;;21.90;64.00;;;;;;4226657;28;20489;-73
2022/06/13 05:33:56;;;;;;;0.00;0.00;;;21.90;63.80;;;;;;4224531;27;20046;-74
2022/06/13 05:36:20;;;;;;;0.08;0.08;;;21.80;63.60;;;;;;4209289;28;20239;-73
2022/06/13 05:38:47;;;;;;;0.00;0.00;;;21.80;63.80;;;;;;4210494;28;20059;-72
2022/06/13 05:41:10;;;;;;;0.08;0.08;;;21.80;63.90;;;;;;4210449;28;20051;-73
2022/06/13 05:43:32;;;;;;;0.00;0.00;;;21.80;64.00;;;;;;4232365;27;20039;-72
2022/06/13 05:45:54;;;;;;;1.10;1.00;;;21.80;63.90;;;;;;4244031;27;20066;-72
2022/06/13 05:48:20;;;;;;;0.40;0.40;;;21.80;64.10;;;;;;4244834;27;20043;-73
2022/06/13 05:50:43;;;;;;;0.28;0.28;;;21.70;64.10;;;;;;4231042;27;20070;-74
2022/06/13 05:53:06;;;;;;;1.30;1.30;;;21.80;64.20;;;;;;4238841;27;20054;-74
2022/06/13 05:55:29;;;;;;;0.30;0.25;;;21.80;64.20;;;;;;4228532;27;20403;-74
2022/06/13 05:57:54;;;;;;;0.75;0.70;;;21.80;64.10;;;;;;4227363;27;20557;-71
2022/06/13 06:00:20;;;;;;;0.15;0.15;;;21.80;64.00;;;;;;4227666;27;20162;-74
2022/06/13 06:02:43;;;;;;;0.00;0.00;;;21.80;64.00;;;;;;4226665;28;20047;-74
2022/06/13 06:05:06;;;;;;;0.32;0.32;;;21.80;63.80;;;;;;4226091;27;20050;-74
2022/06/13 06:07:29;;;;;;;0.20;0.20;;;21.90;63.70;;;;;;4217990;28;20101;-74
2022/06/13 06:09:52;;;;;;;0.00;0.00;;;21.80;63.40;;;;;;4227674;27;20040;-74
2022/06/13 06:12:15;;;;;;;0.00;0.00;;;21.90;63.50;;;;;;4227651;27;20031;-74
2022/06/13 06:14:37;;;;;;;3.83;1.48;;;21.80;63.40;;;;;;4227290;27;20073;-74
2022/06/13 06:16:59;;;;;;;0.00;0.00;;;21.90;63.50;;;;;;4227614;27;20062;-74
2022/06/13 06:19:22;;;;;;;0.00;0.00;;;21.80;63.30;;;;;;4227274;27;20048;-74
2022/06/13 06:21:44;;;;;;;0.00;0.00;;;21.80;63.30;;;;;;4213153;27;20132;-75
2022/06/13 06:24:07;;;;;;;0.00;0.00;;;21.90;63.30;;;;;;4211121;27;20058;-76
2022/06/13 06:26:29;;;;;;;0.00;0.00;;;21.90;63.20;;;;;;4206722;28;20507;-75
2022/06/13 06:28:53;;;;;;;0.05;0.05;;;21.90;63.10;;;;;;4214348;27;20377;-75
2022/06/13 06:31:15;;;;;;;0.13;0.13;;;21.90;63.00;;;;;;4218615;27;20040;-76
2022/06/13 06:33:38;;;;;;;0.05;0.05;;;21.90;62.80;;;;;;4220215;27;20051;-74
2022/06/13 06:36:00;;;;;;;0.00;0.00;;;22.00;62.70;;;;;;4207932;28;20054;-74
2022/06/13 06:38:24;;;;;;;0.00;0.00;;;22.00;62.60;;;;;;4208066;28;20048;-75
2022/06/13 06:40:47;;;;;;;0.45;0.38;;;22.00;62.40;;;;;;4219406;27;20050;-76
2022/06/13 06:43:09;;;;;;;0.00;0.00;;;22.00;62.50;;;;;;4208220;27;20035;-76
2022/06/13 06:45:33;;;;;;;0.65;0.65;;;22.00;62.30;;;;;;4209432;28;20135;-76
2022/06/13 06:47:56;;;;;;;0.08;0.08;;;22.00;62.10;;;;;;4217782;27;20109;-75
2022/06/13 06:50:21;;;;;;;0.77;0.45;;;22.00;62.20;;;;;;4211099;27;20052;-76
2022/06/13 06:52:44;;;;;;;0.00;0.00;;;21.90;62.00;;;;;;4214220;27;20567;-75
2022/06/13 07:00:32;;;;;;;0.00;0.00;;;21.80;61.60;;;;;;4211583;27;20051;-75
2022/06/13 07:02:54;;;;;;;0.00;0.00;;;21.80;62.00;;;;;;4211027;27;20051;-74
2022/06/13 07:05:16;;;;;;;0.00;0.00;;;21.80;62.10;;;;;;4208716;27;20055;-74
2022/06/13 07:07:39;;;;;;;0.00;0.00;;;21.80;62.30;;;;;;4215050;27;20408;-75
2022/06/13 07:10:01;;;;;;;0.00;0.00;;;21.80;62.40;;;;;;4207804;27;20500;-75
2022/06/13 07:12:24;;;;;;;0.00;0.00;;;21.80;62.50;;;;;;4222509;27;20101;-74
2022/06/13 07:14:46;;;;;;;0.00;0.00;;;21.80;62.30;;;;;;4215335;27;20052;-75
2022/06/13 07:17:10;;;;;;;0.00;0.00;;;21.80;62.70;;;;;;4204698;27;20051;-74
2022/06/13 07:19:33;;;;;;;0.00;0.00;;;21.70;62.80;;;;;;4199843;28;20048;-74
2022/06/13 07:21:55;;;;;;;0.00;0.00;;;21.70;62.60;;;;;;4207401;27;20054;-73
2022/06/13 07:24:18;;;;;;;0.00;0.00;;;21.70;62.90;;;;;;4210961;27;20116;-73
2022/06/13 07:26:41;;;;;;;0.00;0.00;;;21.70;63.10;;;;;;4203016;27;20405;-73
2022/06/13 07:29:03;;;;;;;0.10;0.10;;;21.70;63.20;;;;;;4212639;27;20408;-71
2022/06/13 07:31:32;;;;;;;0.10;0.10;;;21.80;63.40;;;;;;4205958;27;20135;-74
2022/06/13 07:33:55;;;;;;;0.00;0.00;;;21.80;63.40;;;;;;4209553;27;20052;-73
2022/06/13 07:36:19;;;;;;;0.00;0.00;;;21.80;63.30;;;;;;4214726;27;20109;-74
2022/06/13 07:38:41;;;;;;;0.00;0.00;;;21.80;63.30;;;;;;4215522;27;20048;-74
2022/06/13 07:41:03;;;;;;;0.10;0.10;;;21.80;63.30;;;;;;4220404;27;20055;-74
2022/06/13 07:43:30;;;;;;;0.10;0.10;;;21.90;63.10;;;;;;4210188;27;20792;-75
2022/06/13 07:45:52;;;;;;;0.00;0.00;;;21.90;63.10;;;;;;4212864;27;20485;-75
2022/06/13 07:48:19;;;;;;;0.00;0.00;;;21.90;63.00;;;;;;4210738;27;20040;-74
2022/06/13 07:50:43;;;;;;;0.40;0.40;;;21.90;62.90;;;;;;4223095;27;20062;-74
2022/06/13 07:53:05;;;;;;;0.00;0.00;;;22.00;62.80;;;;;;4206230;28;20126;-74
2022/06/13 07:55:28;;;;;;;0.00;0.00;;;22.00;62.70;;;;;;4213281;27;20480;-75
2022/06/13 07:57:51;;;;;;;0.00;0.00;;;22.00;62.60;;;;;;4213605;27;20055;-76
2022/06/13 08:00:21;;;;;;;0.00;0.00;;;22.00;61.70;;;;;;4215757;27;20146;-76
2022/06/13 08:02:43;;;;;;;0.00;0.00;;;22.00;61.90;;;;;;4223221;27;20062;-73
2022/06/13 08:05:09;;;;;;;0.00;0.00;;;22.00;62.20;;;;;;4206742;27;20054;-71
2022/06/13 08:07:33;;;;;;;0.00;0.00;;;22.00;62.40;;;;;;4209754;27;20047;-71
2022/06/13 08:09:55;;;;;;;0.10;0.10;;;22.00;63.20;;;;;;4223082;27;20112;-71
2022/06/13 08:12:20;;;;;;;0.00;0.00;;;22.10;62.20;;;;;;4213726;27;20598;-67
2022/06/13 08:14:45;;;;;;;0.00;0.00;;;22.10;62.30;;;;;;4208903;28;20044;-72
2022/06/13 08:17:08;;;;;;;3.42;2.05;;;22.10;62.80;;;;;;4223526;27;20108;-76
2022/06/13 08:19:30;;;;;;;0.00;0.00;;;22.10;62.50;;;;;;4214040;27;20047;-69
2022/06/13 08:21:52;;;;;;;0.00;0.00;;;22.20;62.30;;;;;;4207381;28;20504;-67
2022/06/13 08:24:16;;;;;;;0.00;0.00;;;22.20;61.50;;;;;;4214344;27;20468;-73
2022/06/13 08:26:38;;;;;;;0.50;0.50;;;22.30;61.60;;;;;;4207829;27;20146;-72
2022/06/13 08:29:00;;;;;;;2.92;1.65;;;22.30;61.00;;;;;;4222762;27;20538;-74
2022/06/13 08:31:23;;;;;;;0.25;0.25;;;22.40;61.40;;;;;;4211250;27;20455;-76
2022/06/13 08:33:46;;;;;;;30.77;3.40;;;22.40;60.80;;;;;;4217443;27;20039;-76
2022/06/13 08:36:09;;;;;;;0.10;0.10;;;22.40;60.60;;;;;;4210362;27;20046;-74
2022/06/13 08:38:31;;;;;;;0.60;0.60;;;22.40;60.70;;;;;;4210326;27;20068;-75
2022/06/13 08:41:05;;;;;;;0.63;0.52;;;22.40;59.90;;;;;;4207326;27;20067;-74
2022/06/13 08:43:53;;;;;;;0.70;0.70;;;22.40;59.40;;;;;;4217882;27;20090;-75
2022/06/13 08:46:24;;;;;;;0.60;0.60;;;22.40;59.30;;;;;;4190323;28;20056;-75
2022/06/13 08:48:46;;;;;;;1.45;1.38;;;22.40;59.10;;;;;;4193653;28;21001;-73
2022/06/13 08:51:11;;;;;;;0.20;0.20;;;22.40;59.20;;;;;;4194191;28;20060;-74
2022/06/13 08:53:38;;;;;;;0.65;0.65;;;22.40;58.60;;;;;;4193972;28;20428;-73
2022/06/13 08:56:07;;;;;;;0.05;0.05;;;22.40;57.90;;;;;;4200673;28;20048;-73
2022/06/13 08:58:34;;;;;;;0.10;0.10;;;22.40;58.60;;;;;;4199677;28;20044;-73
2022/06/13 09:00:59;;;;;;;0.20;0.20;;;22.40;57.80;;;;;;4199811;28;20064;-71
2022/06/13 09:03:30;;;;;;;0.00;0.00;;;22.30;58.00;;;;;;4194152;28;20080;-72
2022/06/13 09:05:57;;;;;;;1.80;1.65;;;22.30;58.50;;;;;;4225526;27;20047;-72
2022/06/13 09:08:26;;;;;;;0.28;0.28;;;22.30;59.00;;;;;;4218686;27;20056;-68
2022/06/13 09:10:53;;;;;;;0.10;0.10;;;22.20;58.50;;;;;;4209872;27;20048;-73
2022/06/13 09:13:24;;;;;;;0.45;0.45;;;22.30;58.20;;;;;;4210145;27;20150;-72
2022/06/13 09:15:49;;;;;;;0.00;0.00;;;22.20;57.50;;;;;;4210212;27;20048;-73
2022/06/13 09:18:22;;;;;;;1.48;1.38;;;22.20;57.20;;;;;;4219828;27;20400;-73
2022/06/13 09:20:53;;;;;;;0.00;0.00;;;22.20;57.10;;;;;;4214227;27;20097;-72
2022/06/13 09:23:19;;;;;;;0.00;0.00;;;22.30;56.30;;;;;;4209700;27;20456;-74
2022/06/13 09:25:47;;;;;;;0.00;0.00;;;22.30;56.40;;;;;;4211432;27;20058;-75
2022/06/13 09:28:15;;;;;;;0.00;0.00;;;22.30;57.00;;;;;;4209591;27;20139;-75
2022/06/13 09:30:45;;;;;;;0.00;0.00;;;22.30;56.90;;;;;;4216634;27;20425;-76
2022/06/13 09:33:12;;;;;;;0.00;0.00;;;22.30;57.20;;;;;;4192053;28;20041;-74
2022/06/13 09:35:38;;;;;;;0.00;0.00;;;22.40;56.90;;;;;;4192948;28;20122;-74
2022/06/13 09:38:09;;;;;;;0.17;0.17;;;22.40;57.10;;;;;;4205653;28;20538;-74
2022/06/13 09:40:44;;;;;;;0.00;0.00;;;22.40;56.80;;;;;;4191698;28;20056;-73
2022/06/13 09:43:25;;;;;;;0.03;0.03;;;22.40;56.60;;;;;;4205843;28;20109;-73
2022/06/13 09:46:03;;;;;;;2.20;0.90;;;22.40;56.10;;;;;;4191723;28;20049;-74
2022/06/13 09:48:44;;;;;;;1.55;1.33;;;22.40;56.40;;;;;;4196000;28;20544;-75
2022/06/13 09:51:16;;;;;;;0.00;0.00;;;22.40;56.90;;;;;;4212273;27;20055;-74
2022/06/13 09:53:48;;;;;;;0.05;0.05;;;22.40;56.60;;;;;;4192270;28;20135;-73
2022/06/13 09:56:17;;;;;;;0.05;0.05;;;22.40;56.00;;;;;;4222167;27;20052;-75
2022/06/13 09:58:53;;;;;;;0.08;0.08;;;22.40;55.80;;;;;;4217542;27;20504;-74
2022/06/13 10:01:22;;;;;;;0.00;0.00;;;22.40;56.30;;;;;;4220592;27;20058;-75
2022/06/13 10:03:54;;;;;;;5.93;3.42;;;22.40;56.20;;;;;;4223443;27;20432;-75
2022/06/13 10:06:22;;;;;;;0.08;0.08;;;22.40;56.10;;;;;;4210629;27;20067;-74
2022/06/13 10:08:53;;;;;;;0.00;0.00;;;22.40;56.20;;;;;;4210781;27;20146;-74
2022/06/13 10:11:21;;;;;;;0.00;0.00;;;22.50;55.80;;;;;;4212927;27;20501;-74
2022/06/13 10:13:56;;;;;;;0.43;0.43;;;22.50;55.50;;;;;;4213778;27;20055;-75
2022/06/13 10:16:28;;;;;;;0.00;0.00;;;22.50;55.10;;;;;;4213014;27;20052;-76
2022/06/13 10:19:04;;;;;;;0.00;0.00;;;22.50;55.60;;;;;;4220178;27;20474;-76
2022/06/13 10:21:34;;;;;;;0.00;0.00;;;22.50;56.30;;;;;;4212922;27;20058;-75
2022/06/13 10:24:06;;;;;;;0.00;0.00;;;22.50;55.00;;;;;;4208676;27;20047;-76
2022/06/13 10:26:41;;;;;;;0.00;0.00;;;22.40;55.30;;;;;;4220892;27;20055;-75
2022/06/13 10:29:18;;;;;;;0.00;0.00;;;22.40;55.30;;;;;;4217904;27;20044;-75
2022/06/13 10:31:56;;;;;;;0.00;0.00;;;22.40;55.30;;;;;;4215754;27;20074;-75
2022/06/13 10:34:26;;;;;;;0.10;0.10;;;22.50;55.60;;;;;;4196046;28;20052;-75
2022/06/13 10:36:57;;;;;;;0.10;0.10;;;22.50;55.40;;;;;;4218545;27;20048;-75
2022/06/13 10:39:22;;;;;;;0.00;0.00;;;22.50;55.20;;;;;;4212570;27;20062;-74
2022/06/13 10:41:48;;;;;;;0.35;0.35;;;22.40;55.40;;;;;;4209980;27;20052;-75
2022/06/13 10:44:13;;;;;;;1.30;1.10;;;22.50;55.40;;;;;;4209884;27;20046;-75
2022/06/13 10:46:36;;;;;;;0.00;0.00;;;22.50;56.40;;;;;;4211034;28;20121;-75
2022/06/13 10:49:05;;;;;;;0.00;0.00;;;22.40;55.80;;;;;;4222273;27;20063;-73
2022/06/13 10:51:27;;;;;;;0.20;0.20;;;22.50;55.60;;;;;;4216225;27;20117;-65
2022/06/13 10:53:55;;;;;;;0.00;0.00;;;22.50;55.70;;;;;;4215005;27;20045;-67
2022/06/13 10:56:23;;;;;;;0.00;0.00;;;22.40;55.20;;;;;;4219853;27;20228;-67
2022/06/13 10:58:49;;;;;;;0.00;0.00;;;22.40;55.40;;;;;;4217429;27;20047;-67
2022/06/13 11:01:13;;;;;;;0.05;0.05;;;22.40;54.70;;;;;;4214267;27;20059;-67
2022/06/13 11:03:35;;;;;;;0.00;0.00;;;22.40;54.40;;;;;;4219065;27;20082;-67
2022/06/13 11:06:03;;;;;;;0.00;0.00;;;22.40;55.10;;;;;;4223174;27;20055;-67
2022/06/13 11:08:27;;;;;;;0.00;0.00;;;22.40;55.40;;;;;;4220729;27;20177;-66
2022/06/13 11:10:58;;;;;;;0.00;0.00;;;22.40;54.20;;;;;;4207377;28;20055;-66
2022/06/13 11:13:27;;;;;;;0.00;0.00;;;22.40;55.40;;;;;;4212614;27;22505;-66
2022/06/13 11:24:32;;;;;;;0.00;0.00;;;22.40;56.30;;;;;;4160809;28;20497;-66
2022/06/13 11:29:35;;;;;;;0.00;0.00;;;22.40;57.30;;;;;;4186139;28;20056;-66
2022/06/13 11:32:00;;;;;;;0.00;0.00;;;22.40;56.00;;;;;;4207273;27;20063;-67
2022/06/13 11:34:29;;;;;;;0.00;0.00;;;22.40;55.80;;;;;;4219464;28;20047;-67
2022/06/13 11:36:59;;;;;;;0.00;0.00;;;22.50;55.90;;;;;;4207888;28;20136;-66
2022/06/13 11:39:32;;;;;;;0.00;0.00;;;22.50;56.10;;;;;;4207223;28;20066;-67
2022/06/13 11:41:54;;;;;;;0.00;0.00;;;22.50;56.00;;;;;;4208492;27;20043;-66
2022/06/13 11:44:19;;;;;;;0.00;0.00;;;22.50;55.40;;;;;;4220447;28;20047;-67
2022/06/13 11:46:44;;;;;;;0.00;0.00;;;22.50;55.60;;;;;;4206436;28;20105;-66
2022/06/13 11:49:22;;;;;;;0.00;0.00;;;22.50;55.40;;;;;;4192428;28;20622;-66
2022/06/13 11:51:54;;;;;;;0.45;0.45;;;22.60;55.30;;;;;;4206525;28;20049;-66
2022/06/13 11:54:23;;;;;;;0.88;0.70;;;22.60;55.60;;;;;;4192960;28;20115;-66
2022/06/13 11:56:45;;;;;;;0.00;0.00;;;22.60;55.60;;;;;;4189816;28;20090;-66
2022/06/13 11:59:07;;;;;;;0.00;0.00;;;22.60;55.50;;;;;;4216020;27;20043;-66
2022/06/13 12:01:34;;;;;;;0.00;0.00;;;22.60;55.50;;;;;;4207351;28;20087;-66
2022/06/13 12:04:02;;;;;;;0.00;0.00;;;22.60;55.40;;;;;;4217083;27;20120;-66
2022/06/13 12:06:25;;;;;;;0.00;0.00;;;22.60;55.30;;;;;;4218647;27;20465;-66
2022/06/13 12:08:51;;;;;;;0.00;0.00;;;22.60;55.30;;;;;;4209477;27;20090;-66
2022/06/13 12:11:23;;;;;;;0.00;0.00;;;22.60;54.90;;;;;;4211763;27;20047;-66
2022/06/13 12:13:47;;;;;;;0.00;0.00;;;22.60;55.00;;;;;;4214075;27;20437;-67
2022/06/13 12:16:17;;;;;;;0.00;0.00;;;22.60;54.60;;;;;;4211300;27;20142;-65
2022/06/13 12:18:49;;;;;;;0.00;0.00;;;22.60;54.60;;;;;;4218342;27;20048;-65
2022/06/13 12:21:21;;;;;;;0.00;0.00;;;22.60;54.60;;;;;;4210609;27;20050;-63
2022/06/13 12:23:49;;;;;;;0.00;0.00;;;22.60;54.60;;;;;;4217794;27;20051;-65
2022/06/13 12:26:28;;;;;;;0.22;0.22;;;22.60;54.80;;;;;;4210695;27;20473;-66
2022/06/13 12:29:03;;;;;;;0.45;0.43;;;22.60;53.70;;;;;;4220006;28;20054;-66
2022/06/13 12:31:34;;;;;;;0.70;0.40;;;22.70;54.70;;;;;;4198046;28;20055;-67
2022/06/13 12:34:06;;;;;;;0.00;0.00;;;22.70;54.90;;;;;;4204018;28;20095;-66
2022/06/13 12:36:57;;;;;;;0.13;0.13;;;22.70;54.90;;;;;;4204179;28;20052;-66
2022/06/13 12:39:40;;;;;;;0.00;0.00;;;22.70;55.00;;;;;;4213219;27;20473;-66
2022/06/13 12:42:11;;;;;;;0.00;0.00;;;22.70;54.10;;;;;;4215594;28;20113;-67
2022/06/13 12:44:46;;;;;;;0.08;0.08;;;22.70;54.80;;;;;;4222483;28;20055;-66
2022/06/13 12:47:24;;;;;;;0.00;0.00;;;22.70;54.30;;;;;;4214928;28;20044;-66
2022/06/13 12:50:01;;;;;;;0.00;0.00;;;22.70;54.90;;;;;;4208214;28;20056;-66
2022/06/13 12:52:38;;;;;;;0.00;0.00;;;22.60;54.60;;;;;;4218135;28;20044;-67
2022/06/13 12:55:10;;;;;;;0.00;0.00;;;22.60;54.80;;;;;;4220379;28;20095;-67
2022/06/13 12:57:53;;;;;;;0.00;0.00;;;22.60;54.80;;;;;;4206374;28;20058;-67
2022/06/13 13:00:20;;;;;;;4.10;0.52;;;22.60;54.30;;;;;;4207850;28;20044;-67
2022/06/13 13:03:02;;;;;;;0.10;0.10;;;22.60;54.00;;;;;;4222478;28;20451;-66
2022/06/13 13:05:33;;;;;;;0.00;0.00;;;22.60;54.50;;;;;;4220153;28;20452;-67
2022/06/13 13:08:11;;;;;;;1.27;1.20;;;22.60;54.50;;;;;;4206093;28;20052;-66
2022/06/13 13:10:43;;;;;;;0.65;0.65;;;22.60;54.00;;;;;;4212150;28;20073;-67